createdAt,value
2018-09-21T00:02:01.633Z,67.73
2018-09-21T00:04:30.545Z,67.35
2018-09-21T00:06:59.468Z,67.59
2018-09-21T00:09:28.518Z,67.45
2018-09-21T00:11:57.469Z,67.32
2018-09-21T00:14:26.356Z,67.46
2018-09-21T00:16:55.349Z,67.04
2018-09-21T00:19:24.374Z,67.28
2018-09-21T00:21:53.393Z,66.87
2018-09-21T00:24:22.384Z,66.74
2018-09-21T00:26:51.415Z,66.83
2018-09-21T00:29:20.419Z,67.15
2018-09-21T00:31:49.553Z,67.14
2018-09-21T00:34:18.478Z,66.95
2018-09-21T00:36:47.497Z,66.60
2018-09-21T00:39:16.583Z,65.97
2018-09-21T00:41:45.600Z,66.72
2018-09-21T00:44:14.669Z,66.44
2018-09-21T00:46:43.765Z,66.04
2018-09-21T00:49:12.653Z,66.64
2018-09-21T00:51:41.628Z,66.34
2018-09-21T00:54:10.625Z,66.65
2018-09-21T00:56:39.632Z,66.55
2018-09-21T00:59:08.505Z,66.45
2018-09-21T01:01:37.387Z,66.49
2018-09-21T01:04:06.297Z,67.03
2018-09-21T01:06:35.139Z,66.95
2018-09-21T01:09:05.150Z,66.79
2018-09-21T01:11:33.971Z,66.92
2018-09-21T01:14:02.833Z,67.13
2018-09-21T01:16:31.672Z,66.99
2018-09-21T01:19:00.497Z,67.48
2018-09-21T01:21:29.380Z,67.56
2018-09-21T01:23:58.205Z,67.44
2018-09-21T01:26:27.045Z,67.58
2018-09-21T01:28:56.056Z,68.24
2018-09-21T01:31:25.248Z,67.93
2018-09-21T01:33:54.221Z,67.63
2018-09-21T01:36:23.102Z,67.78
2018-09-21T01:38:51.980Z,68.07
2018-09-21T01:41:20.821Z,67.42
2018-09-21T01:43:49.648Z,67.50
2018-09-21T01:46:18.428Z,67.57
2018-09-21T01:48:47.222Z,67.79
2018-09-21T01:51:16.180Z,68.05
2018-09-21T01:53:45.096Z,68.60
2018-09-21T01:56:13.960Z,68.09
2018-09-21T01:58:42.913Z,68.71
2018-09-21T02:01:11.835Z,67.87
2018-09-21T02:03:40.731Z,68.22
2018-09-21T02:06:09.596Z,69.03
2018-09-21T02:08:38.472Z,69.00
2018-09-21T02:11:07.470Z,69.01
2018-09-21T02:13:36.429Z,68.74
2018-09-21T02:16:05.317Z,69.18
2018-09-21T02:18:34.208Z,69.26
2018-09-21T02:21:03.093Z,69.39
2018-09-21T02:23:31.968Z,69.01
2018-09-21T02:26:00.750Z,69.51
2018-09-21T02:28:29.588Z,70.21
2018-09-21T02:30:58.343Z,69.74
2018-09-21T02:33:27.208Z,69.63
2018-09-21T02:35:56.191Z,69.15
2018-09-21T02:38:25.160Z,68.95
2018-09-21T02:40:54.055Z,69.16
2018-09-21T02:43:22.913Z,68.73
2018-09-21T02:45:51.842Z,68.75
2018-09-21T02:48:20.670Z,68.42
2018-09-21T02:50:49.598Z,68.63
2018-09-21T02:53:18.537Z,68.25
2018-09-21T02:55:47.458Z,68.13
2018-09-21T02:58:16.313Z,67.77
2018-09-21T03:00:45.411Z,67.78
2018-09-21T03:03:14.130Z,68.16
2018-09-21T03:05:42.961Z,67.76
2018-09-21T03:08:11.761Z,67.39
2018-09-21T03:10:40.719Z,67.80
2018-09-21T03:13:09.787Z,67.17
2018-09-21T03:15:38.610Z,67.16
2018-09-21T03:18:07.560Z,67.38
2018-09-21T03:20:36.434Z,67.74
2018-09-21T03:23:05.384Z,67.06
2018-09-21T03:25:34.284Z,66.95
2018-09-21T03:28:03.110Z,66.67
2018-09-21T03:30:32.058Z,66.88
2018-09-21T03:33:01.067Z,66.64
2018-09-21T03:35:29.892Z,66.86
2018-09-21T03:37:58.964Z,66.49
2018-09-21T03:40:27.837Z,66.80
2018-09-21T03:42:56.887Z,66.98
2018-09-21T03:45:25.769Z,66.97
2018-09-21T03:47:54.689Z,66.72
2018-09-21T03:50:23.572Z,66.53
2018-09-21T03:52:52.545Z,66.83
2018-09-21T03:55:21.452Z,66.03
2018-09-21T03:57:50.315Z,65.67
2018-09-21T04:00:19.210Z,65.92
2018-09-21T04:02:48.244Z,65.67
2018-09-21T04:05:17.162Z,65.79
2018-09-21T04:07:46.078Z,65.43
2018-09-21T04:10:15.131Z,65.45
2018-09-21T04:12:44.276Z,65.57
2018-09-21T04:15:13.288Z,65.02
2018-09-21T04:17:42.155Z,65.64
2018-09-21T04:20:11.156Z,65.22
2018-09-21T04:22:40.052Z,65.03
2018-09-21T04:25:10.884Z,65.33
2018-09-21T04:27:39.949Z,65.50
2018-09-21T04:30:08.869Z,65.47
2018-09-21T04:32:37.830Z,64.82
2018-09-21T04:35:06.760Z,65.48
2018-09-21T04:37:35.692Z,64.94
2018-09-21T04:40:04.721Z,64.99
2018-09-21T04:42:33.581Z,64.19
2018-09-21T04:45:02.497Z,63.75
2018-09-21T04:47:31.438Z,64.26
2018-09-21T04:50:00.431Z,64.01
2018-09-21T04:52:29.363Z,63.53
2018-09-21T04:54:58.249Z,63.20
2018-09-21T04:57:27.101Z,62.40
2018-09-21T04:59:56.034Z,62.40
2018-09-21T05:02:24.920Z,61.49
2018-09-21T05:04:53.898Z,61.46
2018-09-21T05:07:22.763Z,61.62
2018-09-21T05:09:51.760Z,61.80
2018-09-21T05:12:20.763Z,61.00
2018-09-21T05:14:49.683Z,61.27
2018-09-21T05:17:18.600Z,60.95
2018-09-21T05:19:47.569Z,60.63
2018-09-21T05:22:16.496Z,60.22
2018-09-21T05:24:45.377Z,59.79
2018-09-21T05:27:14.302Z,59.17
2018-09-21T05:29:43.164Z,58.85
2018-09-21T05:32:12.044Z,58.74
2018-09-21T05:34:41.162Z,57.99
2018-09-21T05:37:10.053Z,58.07
2018-09-21T05:39:38.911Z,57.53
2018-09-21T05:42:07.857Z,57.93
2018-09-21T05:44:36.894Z,57.95
2018-09-21T05:47:05.879Z,57.62
2018-09-21T05:49:34.887Z,56.86
2018-09-21T05:52:03.868Z,55.99
2018-09-21T05:54:32.824Z,55.44
2018-09-21T05:57:01.745Z,55.69
2018-09-21T05:59:30.686Z,55.99
2018-09-21T06:01:59.660Z,55.84
2018-09-21T06:04:28.647Z,55.51
2018-09-21T06:06:57.588Z,55.33
2018-09-21T06:09:26.556Z,54.97
2018-09-21T06:11:55.493Z,55.69
2018-09-21T06:14:24.453Z,54.85
2018-09-21T06:16:53.409Z,55.72
2018-09-21T06:19:22.359Z,55.79
2018-09-21T06:21:51.309Z,55.54
2018-09-21T06:24:20.428Z,56.01
2018-09-21T06:26:49.332Z,56.16
2018-09-21T06:29:18.265Z,55.30
2018-09-21T06:31:47.243Z,55.24
2018-09-21T06:34:16.202Z,55.61
2018-09-21T06:36:45.185Z,55.25
2018-09-21T06:39:14.222Z,55.29
2018-09-21T06:41:43.209Z,55.24
2018-09-21T06:44:12.180Z,55.31
2018-09-21T06:46:41.094Z,55.25
2018-09-21T06:49:10.026Z,54.72
2018-09-21T06:51:39.012Z,53.93
2018-09-21T06:54:08.113Z,53.08
2018-09-21T06:56:37.009Z,53.16
2018-09-21T06:59:06.317Z,52.16
2018-09-21T07:01:35.437Z,51.36
2018-09-21T07:04:04.324Z,51.83
2018-09-21T07:06:33.351Z,51.49
2018-09-21T07:09:02.375Z,51.87
2018-09-21T07:11:31.467Z,51.17
2018-09-21T07:14:00.324Z,51.00
2018-09-21T07:16:29.317Z,50.82
2018-09-21T07:18:58.190Z,50.48
2018-09-21T07:21:27.074Z,49.87
2018-09-21T07:23:56.001Z,49.06
2018-09-21T07:26:27.144Z,48.96
2018-09-21T07:28:56.010Z,49.25
2018-09-21T07:31:25.428Z,49.35
2018-09-21T07:33:54.365Z,49.08
2018-09-21T07:36:24.506Z,48.51
2018-09-21T07:38:53.348Z,49.24
2018-09-21T07:41:22.271Z,49.24
2018-09-21T07:43:51.184Z,49.29
2018-09-21T07:46:21.376Z,50.16
2018-09-21T07:48:50.418Z,48.67
2018-09-21T07:51:19.307Z,48.64
2018-09-21T07:53:48.279Z,48.35
2018-09-21T07:56:17.550Z,49.22
2018-09-21T07:58:46.519Z,48.21
2018-09-21T08:01:15.581Z,49.04
2018-09-21T08:03:44.525Z,47.85
2018-09-21T08:06:13.656Z,47.44
2018-09-21T08:08:42.678Z,47.41
2018-09-21T08:11:11.652Z,47.13
2018-09-21T08:13:40.565Z,47.16
2018-09-21T08:16:09.871Z,47.16
2018-09-21T08:18:38.846Z,47.51
2018-09-21T08:21:07.762Z,48.38
2018-09-21T08:23:36.683Z,47.64
2018-09-21T08:26:05.616Z,47.35
2018-09-21T08:28:34.739Z,47.57
2018-09-21T08:31:03.735Z,47.28
2018-09-21T08:33:33.600Z,47.06
2018-09-21T08:36:02.481Z,47.58
2018-09-21T08:38:31.388Z,47.91
2018-09-21T08:41:00.421Z,47.92
2018-09-21T08:43:29.277Z,47.38
2018-09-21T08:45:59.402Z,47.99
2018-09-21T08:48:28.356Z,49.36
2018-09-21T08:50:57.384Z,52.01
2018-09-21T08:53:26.290Z,57.76
2018-09-21T08:55:55.408Z,61.87
2018-09-21T08:58:24.553Z,65.65
2018-09-21T09:00:53.528Z,68.75
2018-09-21T09:03:23.349Z,72.31
2018-09-21T09:05:54.465Z,75.66
2018-09-21T09:08:24.715Z,78.05
2018-09-21T09:10:54.208Z,75.09
2018-09-21T09:13:23.167Z,79.25
2018-09-21T09:15:52.406Z,81.52
2018-09-21T09:18:21.357Z,81.94
2018-09-21T09:20:50.334Z,84.27
2018-09-21T09:23:19.428Z,84.78
2018-09-21T09:25:51.798Z,86.30
2018-09-21T09:28:20.721Z,87.57
2018-09-21T09:30:49.720Z,87.41
2018-09-21T09:33:18.703Z,88.42
2018-09-21T09:35:48.724Z,89.00
2018-09-21T09:38:17.661Z,89.77
2018-09-21T09:40:47.571Z,89.65
2018-09-21T09:43:16.452Z,89.83
2018-09-21T09:45:46.383Z,90.55
2018-09-21T09:48:15.242Z,88.84
2018-09-21T09:50:44.280Z,89.93
2018-09-21T09:53:13.223Z,86.87
2018-09-21T09:55:51.657Z,88.85
2018-09-21T09:58:20.610Z,88.18
2018-09-21T10:00:53.268Z,88.31
2018-09-21T10:03:23.887Z,87.34
2018-09-21T10:05:52.944Z,88.32
2018-09-21T10:08:21.840Z,87.86
2018-09-21T10:10:50.678Z,88.22
2018-09-21T10:13:19.652Z,86.92
2018-09-21T10:15:53.192Z,86.98
2018-09-21T10:18:22.169Z,87.33
2018-09-21T10:20:51.092Z,87.10
2018-09-21T10:23:19.968Z,86.47
2018-09-21T10:25:50.089Z,86.90
2018-09-21T10:28:19.081Z,86.97
2018-09-21T10:30:48.009Z,84.40
2018-09-21T10:33:17.065Z,85.13
2018-09-21T10:35:46.139Z,85.98
2018-09-21T10:38:15.079Z,85.62
2018-09-21T10:40:44.214Z,83.91
2018-09-21T10:43:13.411Z,84.67
2018-09-21T10:45:42.145Z,84.94
2018-09-21T10:48:12.256Z,85.36
2018-09-21T10:50:41.177Z,84.73
2018-09-21T10:53:10.211Z,82.93
2018-09-21T10:55:39.199Z,83.11
2018-09-21T10:58:09.199Z,83.76
2018-09-21T11:00:38.139Z,83.29
2018-09-21T11:03:07.096Z,83.60
2018-09-21T11:05:36.076Z,83.43
2018-09-21T11:08:06.096Z,83.87
2018-09-21T11:10:35.151Z,82.01
2018-09-21T11:13:04.220Z,82.13
2018-09-21T11:15:33.078Z,80.70
2018-09-21T11:18:03.102Z,80.55
2018-09-21T11:20:34.279Z,78.65
2018-09-21T11:23:03.143Z,76.95
2018-09-21T11:25:32.069Z,76.17
2018-09-21T11:28:02.201Z,77.91
2018-09-21T11:30:31.055Z,76.83
2018-09-21T11:33:00.046Z,75.08
2018-09-21T11:35:28.979Z,73.23
2018-09-21T11:38:00.269Z,73.49
2018-09-21T11:40:29.235Z,75.34
2018-09-21T11:42:58.222Z,75.12
2018-09-21T11:45:27.132Z,74.10
2018-09-21T11:47:57.138Z,74.34
2018-09-21T11:50:26.041Z,74.59
2018-09-21T11:52:55.033Z,74.26
2018-09-21T11:55:24.038Z,76.39
2018-09-21T11:57:53.005Z,77.42
2018-09-21T12:00:24.236Z,76.42
2018-09-21T12:02:53.392Z,74.39
2018-09-21T12:05:27.456Z,74.92
2018-09-21T12:07:57.607Z,74.52
2018-09-21T12:10:26.903Z,72.76
2018-09-21T12:12:55.865Z,74.06
2018-09-21T12:15:24.844Z,72.44
2018-09-21T12:17:55.013Z,71.52
2018-09-21T12:20:24.021Z,73.41
2018-09-21T12:22:52.997Z,73.17
2018-09-21T12:25:21.886Z,71.52
2018-09-21T12:27:58.985Z,70.05
2018-09-21T12:30:28.210Z,68.24
2018-09-21T12:32:57.113Z,62.93
2018-09-21T12:35:25.956Z,62.66
2018-09-21T12:37:56.948Z,56.06
2018-09-21T12:40:25.827Z,52.51
2018-09-21T12:42:54.697Z,53.81
2018-09-21T12:45:23.530Z,52.15
2018-09-21T12:47:53.617Z,51.51
2018-09-21T12:50:22.576Z,50.19
2018-09-21T12:52:51.490Z,50.19
2018-09-21T12:55:20.340Z,48.10
2018-09-21T12:57:49.422Z,48.45
2018-09-21T13:00:18.349Z,48.55
2018-09-21T13:02:47.358Z,48.10
2018-09-21T13:05:16.157Z,47.02
2018-09-21T13:07:47.198Z,48.44
2018-09-21T13:10:16.087Z,47.23
2018-09-21T13:12:45.027Z,47.86
2018-09-21T13:15:14.021Z,48.11
2018-09-21T13:17:56.284Z,48.15
2018-09-21T13:20:25.204Z,46.13
2018-09-21T13:22:54.107Z,46.59
2018-09-21T13:25:23.069Z,46.09
2018-09-21T13:27:52.124Z,44.60
2018-09-21T13:30:21.161Z,46.02
2018-09-21T13:32:50.134Z,47.73
2018-09-21T13:35:19.145Z,47.98
2018-09-21T13:37:50.188Z,49.11
2018-09-21T13:40:19.169Z,48.10
2018-09-21T13:42:48.084Z,46.85
2018-09-21T13:45:16.993Z,47.54
2018-09-21T13:47:45.945Z,47.12
2018-09-21T13:50:14.840Z,48.06
2018-09-21T13:52:43.828Z,49.07
2018-09-21T13:55:12.648Z,46.86
2018-09-21T13:57:41.629Z,42.32
2018-09-21T14:00:13.153Z,41.27
2018-09-21T14:02:42.874Z,39.73
2018-09-21T14:05:11.905Z,40.37
2018-09-21T14:07:41.867Z,37.96
2018-09-21T14:10:12.225Z,37.90
2018-09-21T14:12:41.393Z,34.38
2018-09-21T14:15:10.224Z,33.09
2018-09-21T14:17:39.238Z,34.52
2018-09-21T14:20:10.356Z,35.12
2018-09-21T14:22:39.588Z,35.08
2018-09-21T14:25:08.544Z,32.73
2018-09-21T14:27:37.444Z,31.93
2018-09-21T14:30:08.453Z,31.71
2018-09-21T14:32:37.446Z,32.64
2018-09-21T14:35:06.484Z,33.71
2018-09-21T14:37:35.368Z,34.33
2018-09-21T14:40:04.358Z,31.66
2018-09-21T14:42:33.336Z,30.96
2018-09-21T14:45:02.308Z,31.80
2018-09-21T14:47:31.289Z,31.76
2018-09-21T14:50:00.455Z,32.51
2018-09-21T14:52:29.376Z,31.16
2018-09-21T14:54:58.255Z,30.08
2018-09-21T14:57:27.210Z,31.39
2018-09-21T15:00:00.445Z,31.85
2018-09-21T15:02:29.311Z,28.85
2018-09-21T15:04:58.304Z,28.80
2018-09-21T15:07:27.294Z,27.29
2018-09-21T15:09:57.373Z,28.27
2018-09-21T15:12:26.350Z,27.58
2018-09-21T15:14:55.292Z,29.68
2018-09-21T15:17:24.209Z,31.50
2018-09-21T15:19:53.510Z,32.52
2018-09-21T15:22:22.565Z,32.17
2018-09-21T15:24:51.528Z,30.61
2018-09-21T15:27:20.465Z,28.11
2018-09-21T15:29:50.557Z,29.32
2018-09-21T15:32:19.442Z,29.53
2018-09-21T15:34:48.377Z,30.24
2018-09-21T15:37:17.266Z,29.16
2018-09-21T15:39:46.539Z,29.44
2018-09-21T15:42:15.537Z,31.61
2018-09-21T15:44:44.427Z,32.81
2018-09-21T15:47:14.488Z,32.60
2018-09-21T15:49:44.658Z,35.04
2018-09-21T15:52:13.559Z,38.65
2018-09-21T15:54:42.483Z,38.38
2018-09-21T15:57:11.485Z,39.43
2018-09-21T15:59:40.564Z,39.87
2018-09-21T16:02:09.438Z,38.22
2018-09-21T16:04:38.691Z,38.51
2018-09-21T16:07:07.691Z,38.22
2018-09-21T16:10:40.313Z,38.46
2018-09-21T16:13:09.934Z,38.78
2018-09-21T16:15:38.857Z,38.09
2018-09-21T16:18:07.717Z,37.21
2018-09-21T16:20:37.687Z,37.27
2018-09-21T16:23:06.705Z,37.61
2018-09-21T16:25:35.840Z,37.74
2018-09-21T16:28:04.798Z,38.15
2018-09-21T16:30:34.849Z,39.79
2018-09-21T16:33:03.813Z,41.53
2018-09-21T16:35:32.745Z,42.20
2018-09-21T16:38:01.831Z,42.82
2018-09-21T16:40:31.775Z,43.50
2018-09-21T16:43:00.708Z,44.09
2018-09-21T16:45:29.568Z,42.50
2018-09-21T16:47:58.560Z,43.47
2018-09-21T16:50:28.635Z,44.43
2018-09-21T16:52:57.593Z,43.55
2018-09-21T16:55:26.571Z,43.92
2018-09-21T16:57:55.496Z,44.47
2018-09-21T17:00:24.659Z,44.65
2018-09-21T17:02:53.651Z,44.95
2018-09-21T17:05:22.555Z,45.47
2018-09-21T17:07:51.591Z,45.29
2018-09-21T17:10:20.601Z,46.00
2018-09-21T17:12:49.587Z,46.03
2018-09-21T17:15:18.492Z,45.36
2018-09-21T17:17:47.383Z,45.11
2018-09-21T17:20:17.327Z,44.97
2018-09-21T17:22:46.276Z,45.46
2018-09-21T17:25:15.313Z,45.85
2018-09-21T17:27:44.240Z,46.10
2018-09-21T17:30:14.232Z,46.24
2018-09-21T17:32:43.155Z,46.55
2018-09-21T17:35:12.064Z,46.42
2018-09-21T17:37:40.975Z,46.31
2018-09-21T17:40:09.850Z,46.25
2018-09-21T17:42:38.756Z,46.80
2018-09-21T17:45:07.991Z,47.04
2018-09-21T17:47:36.862Z,46.91
2018-09-21T17:50:06.408Z,47.29
2018-09-21T17:52:35.428Z,47.13
2018-09-21T17:55:04.493Z,47.23
2018-09-21T17:57:33.513Z,46.96
2018-09-21T18:00:02.496Z,47.09
2018-09-21T18:02:31.361Z,47.25
2018-09-21T18:05:00.362Z,46.35
2018-09-21T18:07:29.447Z,46.44
2018-09-21T18:09:58.444Z,47.12
2018-09-21T18:12:27.310Z,46.91
2018-09-21T18:14:56.399Z,47.29
2018-09-21T18:17:25.230Z,47.50
2018-09-21T18:19:54.227Z,47.67
2018-09-21T18:22:23.148Z,47.88
2018-09-21T18:24:52.032Z,47.95
2018-09-21T18:27:20.907Z,47.59
2018-09-21T18:29:49.844Z,45.11
2018-09-21T18:32:18.837Z,44.76
2018-09-21T18:34:47.878Z,44.59
2018-09-21T18:37:16.840Z,45.23
2018-09-21T18:39:45.866Z,45.33
2018-09-21T18:42:14.823Z,45.90
2018-09-21T18:44:43.906Z,47.18
2018-09-21T18:47:12.869Z,48.92
2018-09-21T18:49:41.844Z,53.32
2018-09-21T18:52:10.884Z,58.62
2018-09-21T18:54:39.977Z,61.98
2018-09-21T18:57:09.027Z,63.84
2018-09-21T18:59:38.089Z,65.37
2018-09-21T19:02:07.125Z,65.40
2018-09-21T19:04:36.045Z,66.74
2018-09-21T19:07:09.204Z,66.61
2018-09-21T19:09:38.164Z,67.55
2018-09-21T19:12:07.126Z,68.56
2018-09-21T19:14:36.427Z,68.19
2018-09-21T19:17:05.492Z,68.32
2018-09-21T19:19:34.442Z,68.86
2018-09-21T19:22:03.438Z,69.12
2018-09-21T19:24:32.411Z,69.45
2018-09-21T19:27:01.289Z,70.58
2018-09-21T19:29:30.409Z,73.04
2018-09-21T19:31:59.477Z,73.99
2018-09-21T19:34:28.463Z,76.37
2018-09-21T19:36:57.588Z,77.94
2018-09-21T19:39:26.561Z,78.52
2018-09-21T19:41:55.616Z,81.28
2018-09-21T19:44:24.477Z,82.60
2018-09-21T19:46:53.464Z,82.89
2018-09-21T19:49:22.465Z,83.67
2018-09-21T19:51:51.492Z,84.72
2018-09-21T19:54:20.565Z,85.38
2018-09-21T19:56:49.579Z,86.22
2018-09-21T19:59:18.548Z,86.49
2018-09-21T20:01:47.459Z,87.02
2018-09-21T20:04:16.415Z,87.29
2018-09-21T20:06:45.348Z,88.05
2018-09-21T20:09:14.279Z,87.25
2018-09-21T20:11:43.385Z,87.80
2018-09-21T20:14:12.403Z,87.55
2018-09-21T20:16:41.318Z,88.30
2018-09-21T20:19:10.262Z,87.89
2018-09-21T20:21:39.329Z,88.49
2018-09-21T20:24:08.365Z,89.18
2018-09-21T20:26:37.322Z,89.42
2018-09-21T20:29:06.345Z,90.17
2018-09-21T20:31:40.371Z,90.47
2018-09-21T20:34:09.324Z,90.93
2018-09-21T20:36:38.274Z,90.75
2018-09-21T20:39:08.518Z,91.37
2018-09-21T20:41:37.471Z,91.15
2018-09-21T20:44:06.489Z,91.05
2018-09-21T20:46:35.508Z,91.22
2018-09-21T20:49:04.450Z,91.68
2018-09-21T20:51:34.432Z,91.59
2018-09-21T20:54:03.445Z,91.84
2018-09-21T20:56:32.469Z,91.69
2018-09-21T20:59:01.454Z,91.31
2018-09-21T21:01:30.324Z,91.57
2018-09-21T21:03:59.344Z,89.50
2018-09-21T21:06:28.342Z,89.69
2018-09-21T21:08:57.267Z,89.56
2018-09-21T21:11:26.207Z,88.52
2018-09-21T21:13:55.209Z,87.32
2018-09-21T21:16:24.262Z,86.78
2018-09-21T21:18:53.271Z,86.31
2018-09-21T21:21:22.239Z,86.24
2018-09-21T21:23:51.081Z,86.25
2018-09-21T21:26:20.048Z,87.58
2018-09-21T21:28:49.070Z,87.18
2018-09-21T21:31:18.017Z,87.74
2018-09-21T21:33:46.840Z,87.80
2018-09-21T21:36:15.731Z,88.35
2018-09-21T21:38:44.744Z,87.99
2018-09-21T21:41:13.654Z,88.10
2018-09-21T21:43:42.536Z,87.86
2018-09-21T21:46:11.543Z,88.06
2018-09-21T21:48:40.592Z,88.21
2018-09-21T21:51:09.554Z,88.80
2018-09-21T21:53:38.478Z,89.31
2018-09-21T21:56:07.478Z,88.66
2018-09-21T21:58:36.375Z,89.03
2018-09-21T22:01:10.365Z,89.12
2018-09-21T22:03:39.435Z,89.03
2018-09-21T22:06:08.303Z,89.37
2018-09-21T22:08:37.276Z,89.70
2018-09-21T22:11:10.332Z,90.12
2018-09-21T22:13:44.381Z,90.58
2018-09-21T22:16:13.179Z,90.52
2018-09-21T22:18:42.062Z,90.70
2018-09-21T22:21:11.961Z,90.64
2018-09-21T22:23:40.972Z,91.09
2018-09-21T22:26:09.894Z,90.76
2018-09-21T22:28:38.902Z,90.98
2018-09-21T22:31:07.978Z,91.32
2018-09-21T22:33:37.018Z,91.53
2018-09-21T22:36:06.298Z,91.72
2018-09-21T22:38:35.185Z,91.48
2018-09-21T22:41:04.070Z,91.60
2018-09-21T22:43:32.964Z,91.36
2018-09-21T22:46:01.874Z,91.00
2018-09-21T22:48:30.899Z,90.72
2018-09-21T22:50:59.883Z,90.96
2018-09-21T22:53:28.769Z,90.90
2018-09-21T22:55:57.588Z,90.85
2018-09-21T22:58:26.509Z,90.96
2018-09-21T23:00:55.439Z,91.52
2018-09-21T23:03:24.266Z,91.55
2018-09-21T23:05:53.185Z,91.74
2018-09-21T23:08:22.170Z,92.35
2018-09-21T23:10:52.082Z,91.94
2018-09-21T23:13:21.007Z,91.84
2018-09-21T23:15:50.061Z,91.93
2018-09-21T23:18:19.110Z,92.20
2018-09-21T23:20:47.913Z,92.48
2018-09-21T23:23:16.823Z,92.26
2018-09-21T23:25:45.950Z,92.53
2018-09-21T23:28:14.845Z,91.66
2018-09-21T23:30:43.928Z,92.36
2018-09-21T23:33:13.788Z,92.21
2018-09-21T23:35:42.726Z,91.47
2018-09-21T23:38:11.539Z,91.70
2018-09-21T23:40:40.331Z,90.58
2018-09-21T23:43:09.287Z,89.96
2018-09-21T23:45:38.179Z,90.13
2018-09-21T23:48:07.073Z,90.16
2018-09-21T23:50:35.957Z,89.60
2018-09-21T23:53:05.016Z,89.33
2018-09-21T23:55:33.897Z,89.47
2018-09-21T23:58:02.762Z,89.58
